Time;durP1;ratioP1;P1;durP2;ratioP2;P2;SDS_P1;SDS_P2;PMS_P1;PMS_P2;Temp;Humidity;BMP_temperature;BMP_pressure;BME280_temperature;BME280_humidity;BME280_pressure;Samples;Min_cycle;Max_cycle;Signal;HPM_P1;HPM_P2
2023/10/05 00:02:29;;;;;;;11.23;4.17;;;8.10;99.90;;;;;;480615;247;28545;-72
2023/10/05 00:04:40;;;;;;;6.17;3.63;;;8.10;99.90;;;;;;480604;247;27960;-70
2023/10/05 00:06:33;;;;;;;5.30;3.43;;;8.10;99.90;;;;;;480577;247;27830;-70
2023/10/05 00:08:36;;;;;;;6.90;3.30;;;8.10;99.90;;;;;;480618;247;27863;-70
2023/10/05 00:10:36;;;;;;;8.23;4.13;;;8.10;99.90;;;;;;480604;247;28379;-71
2023/10/05 00:12:37;;;;;;;9.60;4.57;;;7.90;99.90;;;;;;480629;247;27963;-70
2023/10/05 00:14:39;;;;;;;5.70;3.37;;;7.90;99.90;;;;;;480625;247;27923;-71
2023/10/05 00:16:44;;;;;;;8.20;3.53;;;8.00;99.90;;;;;;480619;247;27814;-70
2023/10/05 00:18:41;;;;;;;5.60;3.17;;;8.00;99.90;;;;;;480588;247;27916;-70
2023/10/05 00:20:42;;;;;;;4.77;3.07;;;8.10;99.90;;;;;;480657;247;27981;-71
2023/10/05 00:22:43;;;;;;;7.27;3.70;;;8.10;99.90;;;;;;480634;247;28249;-70
2023/10/05 00:24:47;;;;;;;4.73;3.10;;;8.20;99.90;;;;;;480629;246;28508;-70
2023/10/05 00:26:47;;;;;;;6.37;3.60;;;8.20;99.90;;;;;;480585;247;29203;-70
2023/10/05 00:29:00;;;;;;;6.97;3.30;;;8.20;99.90;;;;;;480612;247;28370;-70
2023/10/05 00:30:50;;;;;;;7.80;3.20;;;8.20;99.90;;;;;;480546;247;28412;-71
2023/10/05 00:32:55;;;;;;;6.60;3.60;;;8.20;99.90;;;;;;480600;247;27793;-71
2023/10/05 00:35:08;;;;;;;7.90;3.70;;;8.20;99.90;;;;;;480611;247;27803;-70
2023/10/05 00:36:58;;;;;;;6.43;3.90;;;8.10;99.90;;;;;;480566;247;27998;-70
2023/10/05 00:39:01;;;;;;;5.60;3.30;;;8.10;99.90;;;;;;480653;246;27831;-70
2023/10/05 00:41:08;;;;;;;7.47;3.80;;;8.10;99.90;;;;;;480579;247;27521;-70
2023/10/05 00:43:03;;;;;;;4.63;3.30;;;8.10;99.90;;;;;;480599;245;28236;-70
2023/10/05 00:45:05;;;;;;;6.10;4.07;;;8.10;99.90;;;;;;480542;247;28276;-70
2023/10/05 00:47:07;;;;;;;7.50;4.07;;;8.10;99.90;;;;;;480646;247;28443;-70
2023/10/05 00:49:15;;;;;;;7.00;3.80;;;8.00;99.90;;;;;;480649;247;27885;-70
2023/10/05 00:51:23;;;;;;;10.37;3.73;;;8.00;99.90;;;;;;480641;247;28082;-70
2023/10/05 00:53:17;;;;;;;7.00;4.30;;;8.00;99.90;;;;;;480630;247;27858;-70
2023/10/05 00:55:17;;;;;;;7.70;3.80;;;8.00;99.90;;;;;;480611;247;28229;-70
2023/10/05 00:57:23;;;;;;;4.07;2.93;;;8.10;99.90;;;;;;480608;247;28004;-70
2023/10/05 00:59:23;;;;;;;8.10;4.20;;;8.10;99.90;;;;;;480652;247;27636;-71
2023/10/05 01:01:49;;;;;;;7.60;3.90;;;8.20;99.90;;;;;;480613;247;27982;-71
2023/10/05 01:03:34;;;;;;;8.07;3.80;;;8.20;99.90;;;;;;480500;247;28338;-70
2023/10/05 01:05:37;;;;;;;10.50;3.87;;;8.20;99.90;;;;;;480596;247;27937;-71
2023/10/05 01:12:56;;;;;;;6.63;3.50;;;8.10;99.90;;;;;;480660;247;27747;-70
2023/10/05 01:14:04;;;;;;;7.63;3.67;;;8.20;99.90;;;;;;481570;246;27892;-71
2023/10/05 01:16:21;;;;;;;6.13;3.40;;;8.20;99.90;;;;;;480579;247;28299;-71
2023/10/05 01:18:06;;;;;;;8.93;3.90;;;8.20;99.90;;;;;;480554;247;28117;-70
2023/10/05 01:20:12;;;;;;;7.30;4.50;;;8.20;99.90;;;;;;480206;247;28398;-71
2023/10/05 01:22:13;;;;;;;5.70;3.20;;;8.10;99.90;;;;;;480654;246;28480;-72
2023/10/05 01:24:14;;;;;;;6.83;3.73;;;8.20;99.90;;;;;;480585;247;28628;-71
2023/10/05 01:26:12;;;;;;;7.07;3.70;;;8.10;99.90;;;;;;480675;246;27914;-71
2023/10/05 01:28:14;;;;;;;6.23;3.17;;;8.20;99.90;;;;;;480666;247;27802;-71
2023/10/05 01:30:15;;;;;;;6.87;3.67;;;8.20;99.90;;;;;;480601;247;27955;-71
2023/10/05 01:32:16;;;;;;;6.13;3.93;;;8.20;99.90;;;;;;480608;247;27944;-71
2023/10/05 01:34:17;;;;;;;5.83;3.27;;;8.20;99.90;;;;;;480624;247;27966;-71
2023/10/05 01:36:19;;;;;;;9.23;4.30;;;8.30;99.90;;;;;;480622;245;27897;-70
2023/10/05 01:38:19;;;;;;;5.37;3.20;;;8.30;99.90;;;;;;480631;247;28221;-72
2023/10/05 01:42:21;;;;;;;10.43;4.30;;;8.30;99.90;;;;;;480642;247;27950;-71
2023/10/05 01:44:25;;;;;;;7.33;3.57;;;8.30;99.90;;;;;;480683;247;27973;-70
2023/10/05 01:46:24;;;;;;;6.53;3.37;;;8.30;99.90;;;;;;480613;247;27540;-71
2023/10/05 01:48:28;;;;;;;6.80;3.83;;;8.30;99.90;;;;;;480605;247;28108;-72
2023/10/05 01:50:26;;;;;;;7.67;3.50;;;8.30;99.90;;;;;;480664;247;27631;-70
2023/10/05 01:52:29;;;;;;;8.43;3.50;;;8.30;99.90;;;;;;480679;247;28004;-70
2023/10/05 01:54:29;;;;;;;6.67;3.43;;;8.30;99.90;;;;;;480628;247;28455;-70
2023/10/05 01:56:32;;;;;;;9.83;3.53;;;8.20;99.90;;;;;;480628;247;28346;-70
2023/10/05 01:58:34;;;;;;;6.67;3.47;;;8.20;99.90;;;;;;480647;247;28493;-71
2023/10/05 02:00:37;;;;;;;6.97;3.40;;;8.20;99.90;;;;;;480667;247;28324;-71
2023/10/05 02:02:34;;;;;;;7.33;3.47;;;8.20;99.90;;;;;;480641;247;28032;-70
2023/10/05 02:04:43;;;;;;;5.70;3.37;;;8.20;99.90;;;;;;480673;247;28312;-70
2023/10/05 02:06:42;;;;;;;6.77;3.70;;;8.20;99.90;;;;;;480629;247;27890;-71
2023/10/05 02:08:40;;;;;;;5.97;3.77;;;8.30;99.90;;;;;;480680;246;27990;-71
2023/10/05 02:10:39;;;;;;;8.50;4.37;;;8.20;99.90;;;;;;480612;247;27886;-70
2023/10/05 02:12:40;;;;;;;8.20;3.90;;;8.30;99.90;;;;;;480639;247;27930;-71
2023/10/05 02:14:41;;;;;;;8.53;3.47;;;8.30;99.90;;;;;;480600;247;27885;-72
2023/10/05 02:16:46;;;;;;;10.13;3.80;;;8.30;99.90;;;;;;480661;247;27893;-70
2023/10/05 02:18:45;;;;;;;8.27;4.03;;;8.30;99.90;;;;;;480613;247;27445;-71
2023/10/05 02:20:50;;;;;;;6.50;3.60;;;8.30;99.90;;;;;;480639;247;28370;-71
2023/10/05 02:22:47;;;;;;;5.27;3.10;;;8.20;99.90;;;;;;480106;247;27905;-71
2023/10/05 02:24:51;;;;;;;4.43;3.50;;;8.10;99.90;;;;;;480565;247;27923;-72
2023/10/05 02:28:56;;;;;;;8.73;3.73;;;8.00;99.90;;;;;;480606;247;28148;-71
2023/10/05 02:31:00;;;;;;;8.43;3.53;;;8.00;99.90;;;;;;480626;247;27875;-70
2023/10/05 02:33:04;;;;;;;5.83;3.50;;;8.00;99.90;;;;;;480609;245;28000;-70
2023/10/05 02:35:18;;;;;;;5.50;3.13;;;8.10;99.90;;;;;;480571;247;28278;-69
2023/10/05 02:37:24;;;;;;;5.40;3.37;;;8.00;99.90;;;;;;480589;247;28428;-71
2023/10/05 02:39:08;;;;;;;6.90;3.00;;;8.00;99.90;;;;;;480914;245;28015;-70
2023/10/05 02:41:10;;;;;;;6.37;3.93;;;7.90;99.90;;;;;;480664;247;27963;-70
2023/10/05 02:43:14;;;;;;;6.73;3.00;;;8.00;99.90;;;;;;480624;247;28047;-69
2023/10/05 02:45:12;;;;;;;8.47;3.73;;;8.00;99.90;;;;;;480549;247;27918;-71
2023/10/05 02:47:14;;;;;;;5.77;3.30;;;7.90;99.90;;;;;;480590;247;28003;-70
2023/10/05 02:49:15;;;;;;;7.23;3.67;;;7.90;99.90;;;;;;480589;247;27898;-70
2023/10/05 02:51:18;;;;;;;7.00;2.73;;;7.90;99.90;;;;;;480579;247;28740;-70
2023/10/05 02:53:18;;;;;;;5.50;3.20;;;7.90;99.90;;;;;;480584;247;28497;-69
2023/10/05 02:55:19;;;;;;;7.57;3.73;;;7.90;99.90;;;;;;480593;247;28240;-70
2023/10/05 02:57:20;;;;;;;6.47;4.00;;;7.90;99.90;;;;;;480559;247;28409;-70
2023/10/05 02:59:24;;;;;;;9.67;4.20;;;7.90;99.90;;;;;;480565;247;28346;-70
2023/10/05 03:01:26;;;;;;;8.73;3.73;;;7.80;99.90;;;;;;480601;247;27896;-70
2023/10/05 03:03:26;;;;;;;6.80;3.27;;;7.80;99.90;;;;;;480630;247;27804;-69
2023/10/05 03:05:28;;;;;;;4.20;3.13;;;7.80;99.90;;;;;;480643;247;27948;-71
2023/10/05 03:07:28;;;;;;;8.43;4.20;;;7.80;99.90;;;;;;480575;247;28040;-70
2023/10/05 03:09:30;;;;;;;5.10;3.50;;;7.80;99.90;;;;;;480617;247;27784;-70
2023/10/05 03:11:31;;;;;;;7.70;3.80;;;7.80;99.90;;;;;;480596;247;27820;-70
2023/10/05 03:13:32;;;;;;;5.93;3.30;;;7.80;99.90;;;;;;480603;247;27663;-71
2023/10/05 03:15:34;;;;;;;6.13;3.60;;;7.80;99.90;;;;;;480582;247;27915;-70
2023/10/05 03:17:36;;;;;;;6.30;3.37;;;7.90;99.90;;;;;;480609;247;27918;-70
2023/10/05 03:19:39;;;;;;;6.03;3.47;;;7.90;99.90;;;;;;480595;247;27813;-70
2023/10/05 03:21:40;;;;;;;7.20;3.30;;;7.90;99.90;;;;;;480658;247;27896;-69
2023/10/05 03:23:41;;;;;;;7.07;3.50;;;7.90;99.90;;;;;;480627;247;28013;-70
2023/10/05 03:25:45;;;;;;;4.30;2.90;;;7.90;99.90;;;;;;480588;247;27999;-71
2023/10/05 03:27:46;;;;;;;7.53;3.43;;;7.90;99.90;;;;;;480619;247;28363;-70
2023/10/05 03:29:52;;;;;;;9.73;3.60;;;7.90;99.90;;;;;;480599;247;28460;-70
2023/10/05 03:31:53;;;;;;;6.63;3.60;;;7.90;99.90;;;;;;480637;246;28044;-70
2023/10/05 03:33:53;;;;;;;6.97;3.57;;;8.00;99.90;;;;;;480615;245;27985;-70
2023/10/05 03:35:58;;;;;;;12.27;4.20;;;8.10;99.90;;;;;;480638;247;28046;-71
2023/10/05 03:37:56;;;;;;;5.57;3.63;;;8.10;99.90;;;;;;480635;247;27763;-69
2023/10/05 03:42:05;;;;;;;8.37;3.70;;;8.10;99.90;;;;;;480643;247;27877;-71
2023/10/05 03:44:07;;;;;;;5.13;3.10;;;8.10;99.90;;;;;;480647;247;28000;-70
2023/10/05 03:46:07;;;;;;;9.20;3.67;;;8.10;99.90;;;;;;480613;247;28295;-72
2023/10/05 03:48:10;;;;;;;7.93;4.07;;;8.10;99.90;;;;;;480625;247;28440;-70
2023/10/05 03:50:16;;;;;;;7.30;3.10;;;8.10;99.90;;;;;;480632;247;28428;-71
2023/10/05 03:52:13;;;;;;;6.20;3.37;;;8.00;99.90;;;;;;480631;247;28448;-70
2023/10/05 03:54:12;;;;;;;5.63;3.63;;;8.00;99.90;;;;;;480628;247;27878;-70
2023/10/05 03:56:13;;;;;;;6.23;3.70;;;8.00;99.90;;;;;;480680;247;28240;-72
2023/10/05 03:58:16;;;;;;;6.33;3.50;;;8.00;99.90;;;;;;480624;247;27883;-70
2023/10/05 04:00:35;;;;;;;9.17;4.63;;;8.10;99.90;;;;;;480632;247;27930;-70
2023/10/05 04:02:20;;;;;;;7.07;3.53;;;8.10;99.90;;;;;;480888;246;28381;-71
2023/10/05 04:04:22;;;;;;;7.60;3.10;;;8.20;99.90;;;;;;480587;247;28479;-72
2023/10/05 04:06:26;;;;;;;7.77;4.20;;;8.20;99.90;;;;;;480601;247;28463;-71
2023/10/05 04:08:27;;;;;;;6.27;4.00;;;8.20;99.90;;;;;;480557;247;28309;-70
2023/10/05 04:10:45;;;;;;;9.03;3.50;;;8.20;99.90;;;;;;480557;247;28452;-70
2023/10/05 04:12:32;;;;;;;6.70;3.60;;;8.20;99.90;;;;;;480549;247;29002;-70
2023/10/05 04:14:33;;;;;;;8.77;3.77;;;8.20;99.90;;;;;;480593;247;28523;-71
2023/10/05 04:16:34;;;;;;;11.20;3.97;;;8.10;99.90;;;;;;480611;247;28440;-72
2023/10/05 04:18:32;;;;;;;9.23;4.10;;;8.20;99.90;;;;;;480688;246;27833;-70
2023/10/05 04:20:34;;;;;;;11.90;4.60;;;8.20;99.90;;;;;;480644;247;27918;-71
2023/10/05 04:22:37;;;;;;;13.30;4.60;;;8.20;99.90;;;;;;480528;247;27974;-70
2023/10/05 04:24:36;;;;;;;8.07;4.13;;;8.20;99.90;;;;;;480567;247;27894;-71
2023/10/05 04:26:37;;;;;;;9.23;4.07;;;8.20;99.90;;;;;;480559;247;27686;-71
2023/10/05 04:28:41;;;;;;;9.00;3.90;;;8.20;99.90;;;;;;480589;247;28005;-70
2023/10/05 04:30:40;;;;;;;10.20;4.77;;;8.20;99.90;;;;;;480545;247;28020;-70
2023/10/05 04:32:41;;;;;;;6.73;4.13;;;8.20;99.90;;;;;;480439;247;27933;-72
2023/10/05 04:34:46;;;;;;;7.97;3.87;;;8.20;99.90;;;;;;480620;247;27986;-70
2023/10/05 04:36:44;;;;;;;9.30;4.20;;;8.20;99.90;;;;;;480600;247;27925;-71
2023/10/05 04:38:45;;;;;;;8.93;4.60;;;8.20;99.90;;;;;;480663;247;27610;-70
2023/10/05 04:40:46;;;;;;;8.23;4.73;;;8.20;99.90;;;;;;480672;247;27680;-71
2023/10/05 04:42:47;;;;;;;6.33;4.10;;;8.20;99.90;;;;;;480623;247;28385;-72
2023/10/05 04:44:52;;;;;;;7.43;4.23;;;8.20;99.90;;;;;;480613;247;28000;-70
2023/10/05 04:46:51;;;;;;;10.77;4.30;;;8.20;99.90;;;;;;480596;247;28365;-70
2023/10/05 04:49:12;;;;;;;8.77;3.77;;;8.10;99.90;;;;;;480607;247;27861;-70
2023/10/05 04:51:14;;;;;;;8.00;4.27;;;8.20;99.90;;;;;;480601;247;28345;-71
2023/10/05 04:53:14;;;;;;;10.20;4.67;;;8.20;99.90;;;;;;480646;247;28051;-71
2023/10/05 04:55:30;;;;;;;6.67;4.17;;;8.30;99.90;;;;;;480613;247;28970;-70
2023/10/05 04:57:35;;;;;;;16.40;4.70;;;8.30;99.90;;;;;;480585;247;28494;-71
2023/10/05 04:59:36;;;;;;;6.30;3.97;;;8.30;99.90;;;;;;480570;247;28466;-70
2023/10/05 05:01:29;;;;;;;7.97;3.60;;;8.40;99.90;;;;;;480579;247;28087;-70
2023/10/05 05:03:48;;;;;;;14.80;4.83;;;8.40;99.90;;;;;;480633;247;27801;-71
2023/10/05 05:05:53;;;;;;;7.53;3.93;;;8.40;99.90;;;;;;480590;247;28579;-71
2023/10/05 05:07:36;;;;;;;10.00;4.83;;;8.40;99.90;;;;;;480558;246;28351;-71
2023/10/05 05:09:38;;;;;;;7.67;4.20;;;8.40;99.90;;;;;;480620;247;28474;-71
2023/10/05 05:11:39;;;;;;;7.13;4.37;;;8.40;99.90;;;;;;480589;245;28006;-72
2023/10/05 05:13:39;;;;;;;5.37;3.50;;;8.40;99.90;;;;;;480618;247;27855;-71
2023/10/05 05:15:42;;;;;;;10.90;4.20;;;8.40;99.90;;;;;;480649;247;27769;-71
2023/10/05 05:17:43;;;;;;;6.40;3.63;;;8.40;99.90;;;;;;480527;247;27838;-70
2023/10/05 05:19:44;;;;;;;12.80;4.80;;;8.40;99.90;;;;;;480585;247;27770;-72
2023/10/05 05:21:45;;;;;;;9.17;4.77;;;8.40;99.90;;;;;;480634;247;27968;-72
2023/10/05 05:23:47;;;;;;;11.13;4.50;;;8.30;99.90;;;;;;480648;247;27413;-71
2023/10/05 05:25:48;;;;;;;5.90;3.57;;;8.30;99.90;;;;;;480589;247;28035;-70
2023/10/05 05:27:48;;;;;;;9.20;4.50;;;8.20;99.90;;;;;;480465;247;27941;-71
2023/10/05 05:29:51;;;;;;;7.13;4.40;;;8.10;99.90;;;;;;480602;247;27863;-72
2023/10/05 05:31:50;;;;;;;7.13;4.67;;;8.10;99.90;;;;;;480606;247;27509;-71
2023/10/05 05:33:52;;;;;;;9.93;3.93;;;8.10;99.90;;;;;;480640;247;27850;-71
2023/10/05 05:35:54;;;;;;;6.90;3.90;;;8.10;99.90;;;;;;480570;247;27957;-71
2023/10/05 05:37:56;;;;;;;6.87;3.83;;;8.20;99.90;;;;;;480623;247;28084;-71
2023/10/05 05:39:56;;;;;;;5.33;3.90;;;8.20;99.90;;;;;;480632;247;28170;-71
2023/10/05 05:42:00;;;;;;;22.33;4.20;;;8.30;99.90;;;;;;480637;247;28404;-71
2023/10/05 05:44:02;;;;;;;6.20;3.70;;;8.30;99.90;;;;;;480619;247;27865;-71
2023/10/05 05:46:02;;;;;;;6.10;3.47;;;8.30;99.90;;;;;;480621;247;27693;-72
2023/10/05 05:48:10;;;;;;;9.33;4.10;;;8.30;99.90;;;;;;480645;247;27964;-71
2023/10/05 05:50:07;;;;;;;7.07;4.37;;;8.30;99.90;;;;;;480575;247;27930;-72
2023/10/05 05:52:08;;;;;;;14.13;4.40;;;8.30;99.90;;;;;;480615;247;27874;-71
2023/10/05 05:54:07;;;;;;;8.80;4.90;;;8.30;99.90;;;;;;480600;246;27547;-71
2023/10/05 05:56:09;;;;;;;9.40;4.50;;;8.40;99.90;;;;;;480615;247;27804;-72
2023/10/05 05:58:14;;;;;;;8.03;4.10;;;8.40;99.90;;;;;;480511;247;27911;-71
2023/10/05 06:00:12;;;;;;;10.70;4.60;;;8.50;99.90;;;;;;480569;247;27989;-72
2023/10/05 06:02:12;;;;;;;14.13;4.37;;;8.40;99.90;;;;;;480572;247;27797;-71
2023/10/05 06:04:14;;;;;;;10.90;4.10;;;8.40;99.90;;;;;;480601;246;27981;-72
2023/10/05 06:06:16;;;;;;;10.27;4.00;;;8.40;99.90;;;;;;480650;246;28135;-72
2023/10/05 06:08:16;;;;;;;9.00;4.20;;;8.40;99.90;;;;;;480593;247;28488;-71
2023/10/05 06:10:17;;;;;;;7.13;4.00;;;8.40;99.90;;;;;;480580;247;28278;-71
2023/10/05 06:12:19;;;;;;;7.00;4.57;;;8.40;99.90;;;;;;480599;247;28433;-73
2023/10/05 06:14:20;;;;;;;9.67;4.03;;;8.50;99.90;;;;;;480627;247;28540;-71
2023/10/05 06:16:21;;;;;;;7.30;4.50;;;8.60;99.90;;;;;;480488;247;27802;-72
2023/10/05 06:18:22;;;;;;;10.80;5.10;;;8.60;99.90;;;;;;480607;247;27745;-71
2023/10/05 06:20:24;;;;;;;9.77;4.50;;;8.60;99.90;;;;;;480608;247;27894;-71
2023/10/05 06:22:25;;;;;;;11.90;4.90;;;8.60;99.90;;;;;;480626;247;27919;-72
2023/10/05 06:24:26;;;;;;;8.57;4.83;;;8.70;99.90;;;;;;480644;247;28047;-71
2023/10/05 06:26:27;;;;;;;9.30;4.30;;;8.80;99.90;;;;;;480631;247;28161;-72
2023/10/05 06:28:29;;;;;;;6.73;4.17;;;8.80;99.90;;;;;;480641;247;28114;-71
2023/10/05 06:30:32;;;;;;;9.63;5.47;;;8.80;99.90;;;;;;480483;247;27950;-71
2023/10/05 06:32:31;;;;;;;7.80;3.83;;;8.90;99.90;;;;;;480624;247;27803;-71
2023/10/05 06:34:34;;;;;;;7.30;3.87;;;9.00;99.90;;;;;;480647;247;27885;-71
2023/10/05 06:36:34;;;;;;;6.47;3.93;;;9.00;99.90;;;;;;480622;244;27993;-71
2023/10/05 06:38:38;;;;;;;5.70;4.30;;;9.10;99.90;;;;;;480629;247;28024;-71
2023/10/05 06:40:39;;;;;;;8.93;3.97;;;9.10;99.90;;;;;;480678;247;28430;-71
2023/10/05 06:42:41;;;;;;;7.97;4.20;;;9.20;99.90;;;;;;480653;247;28232;-71
2023/10/05 06:44:41;;;;;;;9.30;4.70;;;9.30;99.90;;;;;;480621;247;27940;-71
2023/10/05 06:46:42;;;;;;;10.07;4.07;;;9.30;99.90;;;;;;480635;247;27378;-71
2023/10/05 06:48:44;;;;;;;9.50;4.47;;;9.30;99.90;;;;;;480580;246;27904;-71
2023/10/05 06:50:46;;;;;;;9.70;4.23;;;9.30;99.90;;;;;;480626;245;27948;-73
2023/10/05 06:52:49;;;;;;;6.00;3.63;;;9.30;99.90;;;;;;480642;247;27906;-71
2023/10/05 06:54:50;;;;;;;9.17;4.13;;;9.40;99.90;;;;;;480642;247;27836;-71
2023/10/05 06:56:52;;;;;;;7.00;3.70;;;9.50;99.90;;;;;;480672;247;27805;-71
2023/10/05 06:58:53;;;;;;;11.03;4.73;;;9.50;99.90;;;;;;480716;247;27983;-71
2023/10/05 07:00:54;;;;;;;8.30;4.20;;;9.60;99.90;;;;;;480578;247;28355;-71
2023/10/05 07:03:02;;;;;;;7.33;3.80;;;9.60;99.90;;;;;;480651;247;28401;-72
2023/10/05 07:05:00;;;;;;;7.40;4.17;;;9.70;99.90;;;;;;480604;247;28376;-71
2023/10/05 07:07:05;;;;;;;7.10;3.70;;;9.70;99.90;;;;;;480548;247;29105;-71
2023/10/05 07:09:02;;;;;;;5.50;3.60;;;9.70;99.90;;;;;;480679;246;28357;-72
2023/10/05 07:11:06;;;;;;;15.10;4.50;;;9.70;99.90;;;;;;480617;247;28512;-72
2023/10/05 07:13:08;;;;;;;11.70;5.60;;;9.80;99.90;;;;;;480582;247;27750;-71
2023/10/05 07:15:06;;;;;;;9.57;5.60;;;9.90;99.90;;;;;;480575;247;27915;-72
2023/10/05 07:17:07;;;;;;;11.00;5.50;;;9.90;99.90;;;;;;480598;247;27907;-72
2023/10/05 07:19:09;;;;;;;8.93;5.10;;;10.00;99.90;;;;;;480621;246;27942;-71
2023/10/05 07:21:10;;;;;;;10.10;4.37;;;10.10;99.90;;;;;;480612;247;27941;-72
2023/10/05 07:23:11;;;;;;;7.60;4.57;;;10.10;99.90;;;;;;480616;247;27778;-71
2023/10/05 07:25:13;;;;;;;13.97;5.27;;;10.20;99.90;;;;;;480575;247;27678;-72
2023/10/05 07:27:14;;;;;;;9.10;4.80;;;10.30;99.90;;;;;;480622;247;27813;-73
2023/10/05 07:29:15;;;;;;;9.63;4.20;;;10.30;99.90;;;;;;480594;247;28092;-72
2023/10/05 07:31:16;;;;;;;13.17;4.50;;;10.30;99.90;;;;;;480587;247;28525;-72
2023/10/05 07:33:17;;;;;;;7.93;4.00;;;10.30;99.90;;;;;;480631;247;28498;-72
2023/10/05 07:35:19;;;;;;;8.30;4.50;;;10.30;99.90;;;;;;480608;247;28295;-72
2023/10/05 07:37:20;;;;;;;11.63;4.70;;;10.40;99.90;;;;;;480586;247;28132;-72
2023/10/05 07:39:23;;;;;;;10.93;4.70;;;10.40;99.90;;;;;;480564;246;27908;-72
2023/10/05 07:41:22;;;;;;;9.73;4.80;;;10.40;99.90;;;;;;480582;247;28049;-72
2023/10/05 07:43:24;;;;;;;13.13;4.93;;;10.50;99.90;;;;;;480612;247;28028;-72
2023/10/05 07:45:25;;;;;;;9.43;4.73;;;10.50;99.90;;;;;;480608;247;28000;-71
2023/10/05 07:47:26;;;;;;;12.13;4.33;;;10.60;99.90;;;;;;480601;247;28123;-72
2023/10/05 07:49:27;;;;;;;9.60;3.90;;;10.60;99.90;;;;;;480619;247;27882;-72
2023/10/05 07:51:29;;;;;;;9.77;4.70;;;10.70;99.90;;;;;;480591;247;28640;-72
2023/10/05 07:53:31;;;;;;;8.30;5.20;;;10.80;99.90;;;;;;480587;247;28414;-72
2023/10/05 07:55:31;;;;;;;10.67;5.17;;;10.90;99.90;;;;;;480618;247;28768;-72
2023/10/05 07:57:32;;;;;;;7.93;4.10;;;11.00;99.90;;;;;;480614;247;28111;-73
2023/10/05 07:59:34;;;;;;;10.30;4.40;;;11.00;99.90;;;;;;480620;247;28112;-72
2023/10/05 08:01:35;;;;;;;11.10;4.70;;;11.10;99.90;;;;;;480613;247;28218;-72
2023/10/05 08:03:39;;;;;;;9.53;4.03;;;11.10;99.90;;;;;;480583;247;28166;-71
2023/10/05 08:05:37;;;;;;;14.63;5.67;;;11.10;99.90;;;;;;480563;247;28005;-72
2023/10/05 08:07:39;;;;;;;10.80;3.97;;;11.20;99.90;;;;;;480607;247;28184;-72
2023/10/05 08:09:42;;;;;;;8.93;4.80;;;11.20;99.90;;;;;;480607;247;28345;-72
2023/10/05 08:11:41;;;;;;;8.07;4.07;;;11.20;99.90;;;;;;480586;247;28342;-72
2023/10/05 08:13:43;;;;;;;9.10;4.70;;;11.30;99.90;;;;;;480628;247;28608;-73
2023/10/05 08:15:44;;;;;;;12.13;5.90;;;11.30;99.90;;;;;;480629;247;28710;-72
2023/10/05 08:17:46;;;;;;;13.10;5.33;;;11.40;99.90;;;;;;480623;247;28827;-72
2023/10/05 08:19:46;;;;;;;10.47;4.53;;;11.40;99.90;;;;;;480611;247;28161;-72
2023/10/05 08:21:47;;;;;;;14.83;5.70;;;11.50;99.90;;;;;;480619;247;27975;-73
2023/10/05 08:23:51;;;;;;;9.77;4.10;;;11.50;99.90;;;;;;480608;247;28088;-72
2023/10/05 08:25:50;;;;;;;11.60;5.30;;;11.50;99.90;;;;;;480606;247;27960;-72
2023/10/05 08:27:51;;;;;;;14.30;5.00;;;11.60;99.90;;;;;;480610;247;28312;-72
2023/10/05 08:29:52;;;;;;;10.97;5.50;;;11.70;99.90;;;;;;480636;247;28493;-73
2023/10/05 08:31:54;;;;;;;9.20;5.17;;;11.70;99.90;;;;;;480643;247;28021;-72
2023/10/05 08:33:55;;;;;;;11.27;5.00;;;11.80;99.90;;;;;;480658;247;28726;-73
2023/10/05 08:35:56;;;;;;;7.70;5.23;;;11.80;99.90;;;;;;480676;247;28808;-72
2023/10/05 08:37:59;;;;;;;15.67;5.20;;;11.80;99.90;;;;;;480626;247;29016;-72
2023/10/05 08:39:59;;;;;;;15.20;6.43;;;11.70;99.90;;;;;;480639;247;28255;-74
2023/10/05 08:42:06;;;;;;;9.07;5.00;;;11.80;99.90;;;;;;480674;247;28208;-72
2023/10/05 08:44:20;;;;;;;10.90;4.57;;;11.80;99.90;;;;;;480631;247;28631;-71
2023/10/05 08:46:11;;;;;;;7.90;4.37;;;11.90;99.90;;;;;;480650;246;28115;-72
2023/10/05 08:48:10;;;;;;;11.43;4.60;;;11.90;99.90;;;;;;480612;247;28588;-72
2023/10/05 08:50:13;;;;;;;13.40;5.03;;;12.00;99.90;;;;;;480602;247;28289;-73
2023/10/05 08:52:19;;;;;;;8.83;4.90;;;12.00;99.90;;;;;;480630;247;28322;-72
2023/10/05 08:54:16;;;;;;;8.67;4.50;;;12.10;99.90;;;;;;480587;247;28811;-72
2023/10/05 08:56:18;;;;;;;18.90;4.70;;;12.10;99.90;;;;;;480634;247;28642;-72
2023/10/05 08:58:20;;;;;;;12.00;5.20;;;;;;;;;;480623;247;28385;-72
2023/10/05 09:00:38;;;;;;;10.80;4.07;;;12.20;99.90;;;;;;480626;246;27114;-72
2023/10/05 09:02:23;;;;;;;7.83;3.83;;;12.20;99.90;;;;;;480561;247;28727;-72
2023/10/05 09:04:24;;;;;;;8.17;4.03;;;12.30;99.90;;;;;;480592;247;29361;-72
2023/10/05 09:06:26;;;;;;;11.83;4.90;;;12.30;99.90;;;;;;480626;247;28796;-72
2023/10/05 09:08:26;;;;;;;10.50;4.57;;;12.30;99.90;;;;;;480619;246;28916;-72
2023/10/05 09:10:29;;;;;;;10.93;4.40;;;12.40;99.90;;;;;;480614;247;28279;-72
2023/10/05 09:12:35;;;;;;;8.73;4.60;;;12.40;99.90;;;;;;480615;247;28099;-71
2023/10/05 09:14:38;;;;;;;15.73;4.27;;;12.40;99.90;;;;;;480606;247;29375;-71
2023/10/05 09:16:41;;;;;;;10.93;3.93;;;12.50;99.90;;;;;;480604;247;28631;-74
2023/10/05 09:18:42;;;;;;;7.53;3.57;;;12.70;99.90;;;;;;480590;247;28706;-72
2023/10/05 09:20:41;;;;;;;17.27;4.70;;;12.70;99.90;;;;;;480595;247;28836;-72
2023/10/05 09:22:41;;;;;;;9.53;4.33;;;12.80;99.90;;;;;;480613;247;28347;-72
2023/10/05 09:24:43;;;;;;;9.43;4.30;;;12.90;99.90;;;;;;480604;247;28370;-72
2023/10/05 09:26:45;;;;;;;9.83;4.30;;;13.00;99.90;;;;;;480599;247;28252;-73
2023/10/05 09:28:45;;;;;;;10.50;4.10;;;13.10;99.90;;;;;;480617;247;28849;-72
2023/10/05 09:30:46;;;;;;;10.00;3.87;;;13.30;99.90;;;;;;480577;247;28918;-73
2023/10/05 09:32:48;;;;;;;8.93;4.07;;;13.40;99.90;;;;;;480640;247;28286;-72
2023/10/05 09:34:55;;;;;;;6.63;3.67;;;13.50;99.90;;;;;;480621;247;28795;-72
2023/10/05 09:36:53;;;;;;;6.97;3.80;;;13.40;99.90;;;;;;480601;247;28506;-72
2023/10/05 09:38:54;;;;;;;9.63;3.63;;;13.50;99.90;;;;;;480615;247;28568;-73
2023/10/05 09:40:55;;;;;;;6.73;3.70;;;13.50;99.90;;;;;;480620;247;28321;-72
2023/10/05 09:42:57;;;;;;;8.77;4.07;;;13.50;99.90;;;;;;479694;247;28747;-72
2023/10/05 09:44:58;;;;;;;11.80;4.30;;;13.40;99.90;;;;;;480249;247;28560;-72
2023/10/05 09:46:59;;;;;;;8.90;4.33;;;13.30;99.90;;;;;;480607;247;28204;-72
2023/10/05 09:49:01;;;;;;;7.30;3.67;;;13.20;99.90;;;;;;480595;247;28386;-73
2023/10/05 09:51:02;;;;;;;10.00;3.33;;;13.30;99.90;;;;;;480553;247;29886;-72
2023/10/05 09:53:06;;;;;;;8.73;3.87;;;13.40;99.90;;;;;;480644;247;28879;-72
2023/10/05 09:55:04;;;;;;;11.73;3.53;;;13.40;99.90;;;;;;480620;247;28764;-72
2023/10/05 09:57:10;;;;;;;7.27;3.60;;;13.40;99.90;;;;;;480630;247;28243;-72
2023/10/05 09:59:11;;;;;;;8.73;3.93;;;13.50;99.90;;;;;;480601;247;28144;-72
2023/10/05 10:01:11;;;;;;;13.10;4.23;;;13.50;99.90;;;;;;480593;247;28261;-73
2023/10/05 10:03:12;;;;;;;7.27;4.37;;;13.60;99.90;;;;;;480657;247;28637;-73
2023/10/05 10:05:30;;;;;;;6.43;3.23;;;13.70;99.90;;;;;;480628;247;28247;-72
2023/10/05 10:07:23;;;;;;;9.63;3.60;;;13.80;99.90;;;;;;480637;246;28339;-72
2023/10/05 10:09:26;;;;;;;6.17;3.00;;;13.90;99.90;;;;;;480629;247;28491;-73
2023/10/05 10:11:31;;;;;;;9.07;4.27;;;13.90;99.90;;;;;;480600;247;28585;-73
2023/10/05 10:13:27;;;;;;;6.80;3.60;;;14.00;99.90;;;;;;480585;247;28437;-71
2023/10/05 10:15:29;;;;;;;9.57;3.90;;;14.00;99.90;;;;;;480615;247;28379;-72
2023/10/05 10:17:30;;;;;;;7.83;3.60;;;14.00;99.90;;;;;;480629;247;29248;-71
2023/10/05 10:19:45;;;;;;;7.37;2.90;;;14.20;99.90;;;;;;480597;247;29306;-72
2023/10/05 10:21:32;;;;;;;6.43;2.90;;;14.20;99.90;;;;;;480555;247;29270;-73
2023/10/05 10:23:36;;;;;;;6.67;3.37;;;14.30;99.90;;;;;;480639;247;29313;-72
2023/10/05 10:25:41;;;;;;;11.87;4.00;;;14.30;99.90;;;;;;480630;247;28793;-72
2023/10/05 10:27:39;;;;;;;5.10;2.90;;;14.40;99.90;;;;;;480593;246;28904;-72
2023/10/05 10:29:42;;;;;;;4.97;3.40;;;14.50;99.90;;;;;;480627;247;28883;-72
2023/10/05 10:31:48;;;;;;;10.27;3.83;;;14.50;99.90;;;;;;480608;247;29311;-73
2023/10/05 10:33:50;;;;;;;7.33;3.30;;;14.50;99.90;;;;;;480631;247;28760;-72
2023/10/05 10:35:46;;;;;;;6.93;3.23;;;14.60;99.90;;;;;;480558;247;28920;-72
2023/10/05 10:37:54;;;;;;;6.57;3.33;;;14.60;99.90;;;;;;480623;247;28872;-72
2023/10/05 10:39:56;;;;;;;6.63;3.23;;;14.50;99.90;;;;;;480572;247;28892;-72
2023/10/05 10:41:54;;;;;;;10.10;3.80;;;14.70;99.90;;;;;;480586;247;28800;-72
2023/10/05 10:43:57;;;;;;;10.73;3.73;;;14.70;99.90;;;;;;480611;247;28818;-72
2023/10/05 10:46:00;;;;;;;6.33;3.60;;;14.80;99.90;;;;;;480592;247;29385;-73
2023/10/05 10:48:00;;;;;;;7.90;3.80;;;14.90;99.90;;;;;;480608;247;28993;-72